sensor_id;sensor_type;location;lat;lon;timestamp;pressure;altitude;pressure_sealevel;temperature;humidity
76011;BME280;64701;43.536;1.478;2023-02-05T00:01:35;101521.69;;;5.80;74.82
76011;BME280;64701;43.536;1.478;2023-02-05T00:04:00;101522.53;;;5.81;75.53
76011;BME280;64701;43.536;1.478;2023-02-05T00:06:25;101512.25;;;5.78;76.92
76011;BME280;64701;43.536;1.478;2023-02-05T00:08:51;101510.34;;;5.80;76.04
76011;BME280;64701;43.536;1.478;2023-02-05T00:11:16;101513.91;;;5.79;76.88
76011;BME280;64701;43.536;1.478;2023-02-05T00:13:42;101512.84;;;5.81;76.19
76011;BME280;64701;43.536;1.478;2023-02-05T00:16:15;101517.38;;;5.79;76.19
76011;BME280;64701;43.536;1.478;2023-02-05T00:18:41;101516.31;;;5.82;76.25
76011;BME280;64701;43.536;1.478;2023-02-05T00:21:06;101519.81;;;5.82;76.03
76011;BME280;64701;43.536;1.478;2023-02-05T00:23:32;101505.06;;;5.80;75.81
76011;BME280;64701;43.536;1.478;2023-02-05T00:25:58;101505.91;;;5.80;76.48
76011;BME280;64701;43.536;1.478;2023-02-05T00:28:23;101507.00;;;5.78;76.32
76011;BME280;64701;43.536;1.478;2023-02-05T00:30:48;101506.16;;;5.77;76.83
76011;BME280;64701;43.536;1.478;2023-02-05T00:33:14;101503.53;;;5.77;76.19
76011;BME280;64701;43.536;1.478;2023-02-05T00:35:41;101500.91;;;5.77;76.74
76011;BME280;64701;43.536;1.478;2023-02-05T00:38:06;101500.16;;;5.75;76.73
76011;BME280;64701;43.536;1.478;2023-02-05T00:40:31;101508.78;;;5.77;76.18
76011;BME280;64701;43.536;1.478;2023-02-05T00:42:56;101505.31;;;5.77;75.98
76011;BME280;64701;43.536;1.478;2023-02-05T00:45:22;101501.09;;;5.74;76.88
76011;BME280;64701;43.536;1.478;2023-02-05T00:47:47;101497.63;;;5.73;77.01
76011;BME280;64701;43.536;1.478;2023-02-05T00:50:12;101508.25;;;5.72;77.08
76011;BME280;64701;43.536;1.478;2023-02-05T00:52:37;101504.69;;;5.73;77.14
76011;BME280;64701;43.536;1.478;2023-02-05T00:55:03;101509.09;;;5.72;77.32
76011;BME280;64701;43.536;1.478;2023-02-05T00:57:28;101513.66;;;5.70;77.22
76011;BME280;64701;43.536;1.478;2023-02-05T00:59:54;101502.06;;;5.73;76.71
76011;BME280;64701;43.536;1.478;2023-02-05T01:02:19;101509.94;;;5.73;76.98
76011;BME280;64701;43.536;1.478;2023-02-05T01:04:49;101508.25;;;5.72;77.80
76011;BME280;64701;43.536;1.478;2023-02-05T01:07:15;101515.19;;;5.73;77.68
76011;BME280;64701;43.536;1.478;2023-02-05T01:09:41;101513.50;;;5.72;77.96
76011;BME280;64701;43.536;1.478;2023-02-05T01:12:06;101513.66;;;5.70;77.27
76011;BME280;64701;43.536;1.478;2023-02-05T01:14:31;101513.50;;;5.72;77.13
76011;BME280;64701;43.536;1.478;2023-02-05T01:16:56;101513.50;;;5.72;76.27
76011;BME280;64701;43.536;1.478;2023-02-05T01:19:22;101506.59;;;5.71;77.05
76011;BME280;64701;43.536;1.478;2023-02-05T01:21:47;101511.13;;;5.69;77.68
76011;BME280;64701;43.536;1.478;2023-02-05T01:24:12;101521.75;;;5.67;77.45
76011;BME280;64701;43.536;1.478;2023-02-05T01:26:38;101522.69;;;5.66;77.83
76011;BME280;64701;43.536;1.478;2023-02-05T01:29:03;101509.78;;;5.63;78.11
76011;BME280;64701;43.536;1.478;2023-02-05T01:31:28;101512.50;;;5.62;78.21
76011;BME280;64701;43.536;1.478;2023-02-05T01:33:54;101514.44;;;5.60;78.85
76011;BME280;64701;43.536;1.478;2023-02-05T01:36:19;101518.00;;;5.59;78.95
76011;BME280;64701;43.536;1.478;2023-02-05T01:38:44;101514.63;;;5.57;79.26
76011;BME280;64701;43.536;1.478;2023-02-05T01:41:11;101510.44;;;5.54;78.97
76011;BME280;64701;43.536;1.478;2023-02-05T01:43:36;101520.94;;;5.54;78.64
76011;BME280;64701;43.536;1.478;2023-02-05T01:46:20;101512.34;;;5.52;78.70
76011;BME280;64701;43.536;1.478;2023-02-05T01:48:47;101508.13;;;5.50;79.41
76011;BME280;64701;43.536;1.478;2023-02-05T01:51:14;101516.97;;;5.49;79.80
76011;BME280;64701;43.536;1.478;2023-02-05T01:53:41;101522.22;;;5.49;79.66
76011;BME280;64701;43.536;1.478;2023-02-05T01:56:18;101522.22;;;5.49;79.64
76011;BME280;64701;43.536;1.478;2023-02-05T01:59:19;101522.34;;;5.47;79.57
76011;BME280;64701;43.536;1.478;2023-02-05T02:01:37;101513.63;;;5.47;79.86
76011;BME280;64701;43.536;1.478;2023-02-05T02:04:03;101520.66;;;5.46;79.79
76011;BME280;64701;43.536;1.478;2023-02-05T02:06:32;101530.34;;;5.46;79.42
76011;BME280;64701;43.536;1.478;2023-02-05T02:08:58;101522.47;;;5.46;79.59
76011;BME280;64701;43.536;1.478;2023-02-05T02:11:24;101523.50;;;5.43;80.40
76011;BME280;64701;43.536;1.478;2023-02-05T02:13:50;101516.59;;;5.42;79.95
76011;BME280;64701;43.536;1.478;2023-02-05T02:16:17;101519.09;;;5.44;79.64
76011;BME280;64701;43.536;1.478;2023-02-05T02:18:43;101523.50;;;5.43;80.18
76011;BME280;64701;43.536;1.478;2023-02-05T02:21:53;101518.25;;;5.43;80.14
76011;BME280;64701;43.536;1.478;2023-02-05T02:24:06;101518.25;;;5.43;80.08
76011;BME280;64701;43.536;1.478;2023-02-05T02:29:22;101506.91;;;5.43;80.28
76011;BME280;64701;43.536;1.478;2023-02-05T02:31:54;101512.88;;;5.45;80.06
76011;BME280;64701;43.536;1.478;2023-02-05T02:34:25;101509.31;;;5.46;80.58
76011;BME280;64701;43.536;1.478;2023-02-05T02:37:10;101510.78;;;5.50;80.77
76011;BME280;64701;43.536;1.478;2023-02-05T02:39:42;101512.00;;;5.57;80.82
76011;BME280;64701;43.536;1.478;2023-02-05T02:42:15;101515.25;;;5.60;80.98
76011;BME280;64701;43.536;1.478;2023-02-05T02:47:15;101504.28;;;5.66;81.42
76011;BME280;64701;43.536;1.478;2023-02-05T02:49:43;101504.94;;;5.70;80.78
76011;BME280;64701;43.536;1.478;2023-02-05T02:52:11;101505.41;;;5.75;80.35
76011;BME280;64701;43.536;1.478;2023-02-05T02:54:38;101500.66;;;5.80;80.49
76011;BME280;64701;43.536;1.478;2023-02-05T02:57:05;101492.56;;;5.83;79.96
76011;BME280;64701;43.536;1.478;2023-02-05T02:59:32;101496.66;;;5.87;80.23
76011;BME280;64701;43.536;1.478;2023-02-05T03:02:00;101502.53;;;5.91;79.56
76011;BME280;64701;43.536;1.478;2023-02-05T03:04:38;101507.47;;;5.95;79.82
76011;BME280;64701;43.536;1.478;2023-02-05T03:07:15;101515.13;;;5.98;80.05
76011;BME280;64701;43.536;1.478;2023-02-05T03:12:08;101511.69;;;6.09;78.80
76011;BME280;64701;43.536;1.478;2023-02-05T03:14:34;101515.91;;;6.11;79.26
76011;BME280;64701;43.536;1.478;2023-02-05T03:16:59;101517.22;;;6.17;78.43
76011;BME280;64701;43.536;1.478;2023-02-05T03:19:24;101522.38;;;6.19;78.55
76011;BME280;64701;43.536;1.478;2023-02-05T03:21:53;101515.44;;;6.18;79.00
76011;BME280;64701;43.536;1.478;2023-02-05T03:24:20;101523.81;;;6.23;78.52
76011;BME280;64701;43.536;1.478;2023-02-05T03:26:45;101528.84;;;6.26;78.47
76011;BME280;64701;43.536;1.478;2023-02-05T03:29:12;101526.94;;;6.28;78.31
76011;BME280;64701;43.536;1.478;2023-02-05T03:31:44;101525.75;;;6.32;78.28
76011;BME280;64701;43.536;1.478;2023-02-05T03:34:18;101521.22;;;6.34;77.96
76011;BME280;64701;43.536;1.478;2023-02-05T03:42:03;101502.34;;;6.40;78.07
76011;BME280;64701;43.536;1.478;2023-02-05T03:46:58;101502.13;;;6.43;77.61
76011;BME280;64701;43.536;1.478;2023-02-05T03:49:39;101516.94;;;6.44;77.37
76011;BME280;64701;43.536;1.478;2023-02-05T03:52:14;101511.66;;;6.44;78.04
76011;BME280;64701;43.536;1.478;2023-02-05T03:54:42;101520.53;;;6.43;77.58
76011;BME280;64701;43.536;1.478;2023-02-05T03:59:37;101513.34;;;6.45;77.55
76011;BME280;64701;43.536;1.478;2023-02-05T04:02:03;101514.81;;;6.49;76.74
76011;BME280;64701;43.536;1.478;2023-02-05T04:04:29;101522.94;;;6.46;77.38
76011;BME280;64701;43.536;1.478;2023-02-05T04:06:55;101523.66;;;6.48;77.09
76011;BME280;64701;43.536;1.478;2023-02-05T04:09:20;101535.13;;;6.47;77.49
76011;BME280;64701;43.536;1.478;2023-02-05T04:11:45;101530.34;;;6.52;77.58
76011;BME280;64701;43.536;1.478;2023-02-05T04:14:11;101538.97;;;6.54;77.01
76011;BME280;64701;43.536;1.478;2023-02-05T04:16:36;101534.56;;;6.54;77.06
76011;BME280;64701;43.536;1.478;2023-02-05T04:19:01;101533.47;;;6.57;77.32
76011;BME280;64701;43.536;1.478;2023-02-05T04:21:26;101532.78;;;6.55;76.92
76011;BME280;64701;43.536;1.478;2023-02-05T04:23:52;101529.16;;;6.56;77.27
76011;BME280;64701;43.536;1.478;2023-02-05T04:26:17;101531.78;;;6.56;77.44
76011;BME280;64701;43.536;1.478;2023-02-05T04:28:42;101533.72;;;6.54;77.50
76011;BME280;64701;43.536;1.478;2023-02-05T04:31:08;101530.34;;;6.52;77.37
76011;BME280;64701;43.536;1.478;2023-02-05T04:33:34;101530.25;;;6.53;77.50
76011;BME280;64701;43.536;1.478;2023-02-05T04:35:59;101536.09;;;6.57;76.91
76011;BME280;64701;43.536;1.478;2023-02-05T04:38:25;101533.47;;;6.57;77.26
76011;BME280;64701;43.536;1.478;2023-02-05T04:40:50;101536.72;;;6.61;77.15
76011;BME280;64701;43.536;1.478;2023-02-05T04:43:16;101535.88;;;6.60;77.16
76011;BME280;64701;43.536;1.478;2023-02-05T04:45:41;101550.22;;;6.56;77.95
76011;BME280;64701;43.536;1.478;2023-02-05T04:48:06;101546.53;;;6.59;77.16
76011;BME280;64701;43.536;1.478;2023-02-05T04:50:31;101548.78;;;6.63;76.39
76011;BME280;64701;43.536;1.478;2023-02-05T04:52:57;101548.59;;;6.66;76.73
76011;BME280;64701;43.536;1.478;2023-02-05T04:55:22;101556.22;;;6.69;77.16
76011;BME280;64701;43.536;1.478;2023-02-05T04:57:47;101550.75;;;6.72;76.33
76011;BME280;64701;43.536;1.478;2023-02-05T05:00:13;101550.50;;;6.75;76.46
76011;BME280;64701;43.536;1.478;2023-02-05T05:02:39;101547.88;;;6.75;76.51
76011;BME280;64701;43.536;1.478;2023-02-05T05:05:04;101554.44;;;6.81;76.34
76011;BME280;64701;43.536;1.478;2023-02-05T05:07:31;101539.59;;;6.80;76.26
76011;BME280;64701;43.536;1.478;2023-02-05T05:09:56;101549.06;;;6.82;76.45
76011;BME280;64701;43.536;1.478;2023-02-05T05:12:21;101538.44;;;6.84;76.21
76011;BME280;64701;43.536;1.478;2023-02-05T05:14:47;101546.19;;;6.85;76.24
76011;BME280;64701;43.536;1.478;2023-02-05T05:17:12;101542.03;;;6.83;76.57
76011;BME280;64701;43.536;1.478;2023-02-05T05:19:38;101554.72;;;6.89;75.84
76011;BME280;64701;43.536;1.478;2023-02-05T05:22:04;101557.94;;;6.92;75.66
76011;BME280;64701;43.536;1.478;2023-02-05T05:24:29;101552.44;;;6.95;74.92
76011;BME280;64701;43.536;1.478;2023-02-05T05:26:54;101547.88;;;6.97;75.15
76011;BME280;64701;43.536;1.478;2023-02-05T05:29:20;101545.38;;;6.96;75.17
76011;BME280;64701;43.536;1.478;2023-02-05T05:31:45;101539.88;;;6.99;74.51
76011;BME280;64701;43.536;1.478;2023-02-05T05:34:10;101547.66;;;7.01;74.85
76011;BME280;64701;43.536;1.478;2023-02-05T05:36:35;101542.13;;;7.04;74.65
76011;BME280;64701;43.536;1.478;2023-02-05T05:39:01;101536.88;;;7.04;74.78
76011;BME280;64701;43.536;1.478;2023-02-05T05:41:46;101538.56;;;7.05;74.33
76011;BME280;64701;43.536;1.478;2023-02-05T05:44:30;101535.22;;;7.03;74.63
76011;BME280;64701;43.536;1.478;2023-02-05T05:46:55;101534.38;;;7.02;74.29
76011;BME280;64701;43.536;1.478;2023-02-05T05:49:20;101528.28;;;7.02;74.52
76011;BME280;64701;43.536;1.478;2023-02-05T05:51:45;101526.94;;;6.96;75.45
76011;BME280;64701;43.536;1.478;2023-02-05T05:54:11;101526.94;;;6.96;75.29
76011;BME280;64701;43.536;1.478;2023-02-05T05:56:36;101529.34;;;6.99;74.90
76011;BME280;64701;43.536;1.478;2023-02-05T05:59:02;101531.84;;;7.01;74.20
76011;BME280;64701;43.536;1.478;2023-02-05T06:01:27;101535.22;;;7.03;74.68
76011;BME280;64701;43.536;1.478;2023-02-05T06:03:52;101533.53;;;7.02;74.72
76011;BME280;64701;43.536;1.478;2023-02-05T06:06:18;101534.38;;;7.02;74.83
76011;BME280;64701;43.536;1.478;2023-02-05T06:08:43;101528.28;;;7.02;74.04
76011;BME280;64701;43.536;1.478;2023-02-05T06:11:08;101527.53;;;7.00;74.23
76011;BME280;64701;43.536;1.478;2023-02-05T06:13:34;101532.06;;;6.97;74.95
76011;BME280;64701;43.536;1.478;2023-02-05T06:15:59;101535.69;;;6.96;74.33
76011;BME280;64701;43.536;1.478;2023-02-05T06:18:25;101534.97;;;6.94;74.74
76011;BME280;64701;43.536;1.478;2023-02-05T06:20:50;101530.66;;;6.93;74.49
76011;BME280;64701;43.536;1.478;2023-02-05T06:23:15;101528.84;;;6.94;74.81
76011;BME280;64701;43.536;1.478;2023-02-05T06:25:40;101536.16;;;6.90;75.03
76011;BME280;64701;43.536;1.478;2023-02-05T06:28:06;101530.06;;;6.90;75.44
76011;BME280;64701;43.536;1.478;2023-02-05T06:30:31;101529.81;;;6.93;74.45
76011;BME280;64701;43.536;1.478;2023-02-05T06:32:56;101531.59;;;6.92;74.91
76011;BME280;64701;43.536;1.478;2023-02-05T06:35:22;101539.03;;;6.87;75.55
76011;BME280;64701;43.536;1.478;2023-02-05T06:37:47;101531.59;;;6.92;74.72
76011;BME280;64701;43.536;1.478;2023-02-05T06:40:13;101536.88;;;6.92;74.63
76011;BME280;64701;43.536;1.478;2023-02-05T06:42:39;101545.03;;;6.89;75.34
76011;BME280;64701;43.536;1.478;2023-02-05T06:45:05;101542.50;;;6.88;74.84
76011;BME280;64701;43.536;1.478;2023-02-05T06:47:30;101539.75;;;6.89;74.59
76011;BME280;64701;43.536;1.478;2023-02-05T06:49:55;101534.38;;;6.91;74.91
76011;BME280;64701;43.536;1.478;2023-02-05T06:52:21;101536.16;;;6.90;74.64
76011;BME280;64701;43.536;1.478;2023-02-05T06:54:46;101541.44;;;6.90;74.92
76011;BME280;64701;43.536;1.478;2023-02-05T06:57:11;101538.66;;;6.92;74.28
76011;BME280;64701;43.536;1.478;2023-02-05T06:59:36;101545.03;;;6.89;74.97
76011;BME280;64701;43.536;1.478;2023-02-05T07:02:02;101547.66;;;6.89;74.64
76011;BME280;64701;43.536;1.478;2023-02-05T07:04:28;101544.78;;;6.92;74.39
76011;BME280;64701;43.536;1.478;2023-02-05T07:06:57;101554.47;;;6.92;74.67
76011;BME280;64701;43.536;1.478;2023-02-05T07:09:23;101555.56;;;6.89;74.75
76011;BME280;64701;43.536;1.478;2023-02-05T07:11:49;101556.97;;;6.93;74.43
76011;BME280;64701;43.536;1.478;2023-02-05T07:14:14;101558.66;;;6.94;74.19
76011;BME280;64701;43.536;1.478;2023-02-05T07:16:39;101571.00;;;6.94;74.07
76011;BME280;64701;43.536;1.478;2023-02-05T07:19:05;101558.66;;;6.94;73.96
76011;BME280;64701;43.536;1.478;2023-02-05T07:21:30;101560.47;;;6.94;74.31
76011;BME280;64701;43.536;1.478;2023-02-05T07:23:55;101570.41;;;6.90;74.48
76011;BME280;64701;43.536;1.478;2023-02-05T07:26:20;101577.09;;;6.94;74.13
76011;BME280;64701;43.536;1.478;2023-02-05T07:28:46;101575.41;;;6.93;74.28
76011;BME280;64701;43.536;1.478;2023-02-05T07:31:12;101577.84;;;6.96;73.81
76011;BME280;64701;43.536;1.478;2023-02-05T07:33:49;101577.09;;;6.94;73.48
76011;BME280;64701;43.536;1.478;2023-02-05T07:36:15;101577.00;;;6.96;73.23
76011;BME280;64701;43.536;1.478;2023-02-05T07:38:41;101581.63;;;6.92;73.79
76011;BME280;64701;43.536;1.478;2023-02-05T07:41:08;101589.31;;;6.95;73.60
76011;BME280;64701;43.536;1.478;2023-02-05T07:43:33;101595.66;;;6.93;73.97
76011;BME280;64701;43.536;1.478;2023-02-05T07:46:03;101600.56;;;6.97;73.17
76011;BME280;64701;43.536;1.478;2023-02-05T07:48:29;101602.47;;;6.95;73.33
76011;BME280;64701;43.536;1.478;2023-02-05T07:50:54;101596.25;;;6.96;73.82
76011;BME280;64701;43.536;1.478;2023-02-05T07:53:19;101601.41;;;6.98;73.23
76011;BME280;64701;43.536;1.478;2023-02-05T07:55:45;101607.50;;;6.98;73.19
76011;BME280;64701;43.536;1.478;2023-02-05T07:58:10;101601.75;;;6.93;73.98
76011;BME280;64701;43.536;1.478;2023-02-05T08:00:36;101611.56;;;6.91;74.24
76011;BME280;64701;43.536;1.478;2023-02-05T08:03:01;101604.50;;;6.92;74.39
76011;BME280;64701;43.536;1.478;2023-02-05T08:05:26;101610.38;;;6.95;74.18
76011;BME280;64701;43.536;1.478;2023-02-05T08:07:52;101609.19;;;7.00;73.36
76011;BME280;64701;43.536;1.478;2023-02-05T08:10:17;101616.59;;;6.94;73.56
76011;BME280;64701;43.536;1.478;2023-02-05T08:12:42;101621.63;;;6.97;74.06
76011;BME280;64701;43.536;1.478;2023-02-05T08:15:08;101627.50;;;7.01;74.17
76011;BME280;64701;43.536;1.478;2023-02-05T08:17:33;101625.56;;;7.03;73.37
76011;BME280;64701;43.536;1.478;2023-02-05T08:19:58;101622.84;;;7.05;73.56
76011;BME280;64701;43.536;1.478;2023-02-05T08:22:31;101618.56;;;7.15;72.89
76011;BME280;64701;43.536;1.478;2023-02-05T08:24:56;101627.66;;;7.22;73.05
76011;BME280;64701;43.536;1.478;2023-02-05T08:27:21;101625.84;;;7.22;73.61
76011;BME280;64701;43.536;1.478;2023-02-05T08:29:46;101628.13;;;7.27;73.23
76011;BME280;64701;43.536;1.478;2023-02-05T08:32:13;101634.00;;;7.30;73.09
76011;BME280;64701;43.536;1.478;2023-02-05T08:34:38;101631.28;;;7.32;73.41
76011;BME280;64701;43.536;1.478;2023-02-05T08:37:03;101638.81;;;7.36;73.06
76011;BME280;64701;43.536;1.478;2023-02-05T08:39:28;101647.06;;;7.32;73.59
76011;BME280;64701;43.536;1.478;2023-02-05T08:41:54;101651.63;;;7.41;73.53
76011;BME280;64701;43.536;1.478;2023-02-05T08:44:19;101647.06;;;7.43;73.43
76011;BME280;64701;43.536;1.478;2023-02-05T08:46:44;101654.38;;;7.39;74.13
76011;BME280;64701;43.536;1.478;2023-02-05T08:49:10;101649.25;;;7.49;73.59
76011;BME280;64701;43.536;1.478;2023-02-05T08:51:35;101650.91;;;7.50;73.22
76011;BME280;64701;43.536;1.478;2023-02-05T08:54:00;101661.69;;;7.47;74.14
76011;BME280;64701;43.536;1.478;2023-02-05T08:56:26;101661.94;;;7.44;74.94
76011;BME280;64701;43.536;1.478;2023-02-05T08:58:51;101670.91;;;7.42;75.01
76011;BME280;64701;43.536;1.478;2023-02-05T09:01:16;101673.66;;;7.51;74.34
76011;BME280;64701;43.536;1.478;2023-02-05T09:03:42;101679.91;;;7.50;75.25
76011;BME280;64701;43.536;1.478;2023-02-05T09:06:08;101676.53;;;7.37;75.58
76011;BME280;64701;43.536;1.478;2023-02-05T09:08:34;101690.56;;;7.49;75.59
76011;BME280;64701;43.536;1.478;2023-02-05T09:11:00;101689.25;;;7.43;76.34
76011;BME280;64701;43.536;1.478;2023-02-05T09:13:25;101696.78;;;7.48;76.23
76011;BME280;64701;43.536;1.478;2023-02-05T09:15:50;101692.38;;;7.59;74.85
76011;BME280;64701;43.536;1.478;2023-02-05T09:18:16;101688.78;;;7.60;75.50
76011;BME280;64701;43.536;1.478;2023-02-05T09:20:45;101691.63;;;7.57;75.99
76011;BME280;64701;43.536;1.478;2023-02-05T09:23:11;101693.31;;;7.58;76.09
76011;BME280;64701;43.536;1.478;2023-02-05T09:25:37;101691.16;;;7.63;75.90
76011;BME280;64701;43.536;1.478;2023-02-05T09:28:03;101685.41;;;7.69;76.29
76011;BME280;64701;43.536;1.478;2023-02-05T09:30:28;101674.16;;;7.78;75.49
76011;BME280;64701;43.536;1.478;2023-02-05T09:32:53;101666.13;;;7.91;74.37
76011;BME280;64701;43.536;1.478;2023-02-05T09:35:19;101671.63;;;7.88;75.37
76011;BME280;64701;43.536;1.478;2023-02-05T09:37:44;101678.34;;;7.92;74.85
76011;BME280;64701;43.536;1.478;2023-02-05T09:40:17;101681.69;;;7.94;75.38
76011;BME280;64701;43.536;1.478;2023-02-05T09:45:16;101694.00;;;8.05;75.18
76011;BME280;64701;43.536;1.478;2023-02-05T09:52:41;101688.41;;;8.09;75.58
76011;BME280;64701;43.536;1.478;2023-02-05T09:55:25;101701.69;;;8.19;75.16
76011;BME280;64701;43.536;1.478;2023-02-05T09:57:52;101700.94;;;8.17;75.40
76011;BME280;64701;43.536;1.478;2023-02-05T10:02:46;101694.25;;;8.13;76.00
76011;BME280;64701;43.536;1.478;2023-02-05T10:05:15;101696.03;;;8.24;75.34
76011;BME280;64701;43.536;1.478;2023-02-05T10:07:50;101704.44;;;8.17;76.01
76011;BME280;64701;43.536;1.478;2023-02-05T10:10:22;101705.50;;;8.26;75.07
76011;BME280;64701;43.536;1.478;2023-02-05T10:13:01;101703.25;;;8.33;75.50
76011;BME280;64701;43.536;1.478;2023-02-05T10:30:29;101694.63;;;8.63;74.88
76011;BME280;64701;43.536;1.478;2023-02-05T10:32:56;101675.38;;;8.72;74.57
76011;BME280;64701;43.536;1.478;2023-02-05T10:35:31;101679.19;;;8.79;74.64
76011;BME280;64701;43.536;1.478;2023-02-05T10:38:01;101681.38;;;8.74;75.33
76011;BME280;64701;43.536;1.478;2023-02-05T10:40:28;101684.22;;;8.82;75.16
76011;BME280;64701;43.536;1.478;2023-02-05T10:43:04;101675.78;;;8.88;74.89
76011;BME280;64701;43.536;1.478;2023-02-05T10:45:35;101672.63;;;8.94;75.10
76011;BME280;64701;43.536;1.478;2023-02-05T10:50:52;101661.41;;;9.01;74.67
76011;BME280;64701;43.536;1.478;2023-02-05T10:53:20;101672.38;;;8.97;75.04
76011;BME280;64701;43.536;1.478;2023-02-05T10:55:46;101664.84;;;9.13;74.55
76011;BME280;64701;43.536;1.478;2023-02-05T11:00:55;101651.53;;;9.24;73.97
76011;BME280;64701;43.536;1.478;2023-02-05T11:03:20;101642.19;;;9.20;74.61
76011;BME280;64701;43.536;1.478;2023-02-05T11:05:46;101639.16;;;9.25;74.26
76011;BME280;64701;43.536;1.478;2023-02-05T11:10:56;101625.56;;;9.29;74.86
76011;BME280;64701;43.536;1.478;2023-02-05T11:13:22;101623.69;;;9.41;74.11
76011;BME280;64701;43.536;1.478;2023-02-05T11:15:58;101609.66;;;9.60;73.72
76011;BME280;64701;43.536;1.478;2023-02-05T11:19:25;101615.97;;;9.68;73.36
76011;BME280;64701;43.536;1.478;2023-02-05T11:21:19;101602.38;;;9.92;72.60
76011;BME280;64701;43.536;1.478;2023-02-05T11:23:52;101601.00;;;9.98;71.89
76011;BME280;64701;43.536;1.478;2023-02-05T11:26:19;101604.91;;;10.03;71.90
76011;BME280;64701;43.536;1.478;2023-02-05T11:28:45;101601.72;;;10.09;71.81
76011;BME280;64701;43.536;1.478;2023-02-05T11:33:49;101597.84;;;10.33;71.40
76011;BME280;64701;43.536;1.478;2023-02-05T11:36:18;101586.84;;;10.28;71.20
76011;BME280;64701;43.536;1.478;2023-02-05T11:41:24;101597.19;;;10.31;70.92
76011;BME280;64701;43.536;1.478;2023-02-05T11:43:50;101593.13;;;10.46;69.89
76011;BME280;64701;43.536;1.478;2023-02-05T11:46:20;101592.72;;;10.41;70.44
76011;BME280;64701;43.536;1.478;2023-02-05T11:51:13;101590.06;;;10.41;70.26
76011;BME280;64701;43.536;1.478;2023-02-05T11:53:48;101582.94;;;10.51;69.94
76011;BME280;64701;43.536;1.478;2023-02-05T11:56:17;101591.34;;;10.37;70.21
76011;BME280;64701;43.536;1.478;2023-02-05T11:58:44;101590.19;;;10.39;70.10
76011;BME280;64701;43.536;1.478;2023-02-05T12:01:21;101592.72;;;10.41;70.25
76011;BME280;64701;43.536;1.478;2023-02-05T12:03:57;101592.44;;;10.34;70.26
76011;BME280;64701;43.536;1.478;2023-02-05T12:06:23;101601.19;;;10.25;70.30
76011;BME280;64701;43.536;1.478;2023-02-05T12:08:53;101592.00;;;10.19;70.57
76011;BME280;64701;43.536;1.478;2023-02-05T12:26:37;101571.06;;;9.97;71.60
76011;BME280;64701;43.536;1.478;2023-02-05T12:29:12;101567.03;;;10.03;70.78
76011;BME280;64701;43.536;1.478;2023-02-05T12:36:55;101551.06;;;10.23;71.03
76011;BME280;64701;43.536;1.478;2023-02-05T12:43:05;101532.25;;;10.36;69.56
76011;BME280;64701;43.536;1.478;2023-02-05T12:53:00;101521.28;;;10.68;68.61
76011;BME280;64701;43.536;1.478;2023-02-05T12:57:56;101506.78;;;10.72;68.40
76011;BME280;64701;43.536;1.478;2023-02-05T13:00:22;101504.31;;;10.51;68.97
76011;BME280;64701;43.536;1.478;2023-02-05T13:05:36;101504.47;;;10.50;68.59
76011;BME280;64701;43.536;1.478;2023-02-05T13:08:05;101504.63;;;10.48;68.92
76011;BME280;64701;43.536;1.478;2023-02-05T13:11:06;101503.34;;;10.52;68.96
76011;BME280;64701;43.536;1.478;2023-02-05T13:13:25;101501.69;;;10.42;68.51
76011;BME280;64701;43.536;1.478;2023-02-05T13:16:29;101500.97;;;10.49;68.75
76011;BME280;64701;43.536;1.478;2023-02-05T13:18:45;101489.03;;;10.36;68.97
76011;BME280;64701;43.536;1.478;2023-02-05T13:21:18;101485.38;;;10.46;69.23
76011;BME280;64701;43.536;1.478;2023-02-05T13:26:47;101465.13;;;10.55;68.76
76011;BME280;64701;43.536;1.478;2023-02-05T13:29:33;101468.88;;;10.62;69.09
76011;BME280;64701;43.536;1.478;2023-02-05T13:32:02;101467.38;;;10.50;69.05
76011;BME280;64701;43.536;1.478;2023-02-05T13:34:28;101469.31;;;10.57;68.70
76011;BME280;64701;43.536;1.478;2023-02-05T13:37:37;101462.06;;;10.50;69.46
76011;BME280;64701;43.536;1.478;2023-02-05T13:45:06;101449.41;;;10.44;69.29
76011;BME280;64701;43.536;1.478;2023-02-05T14:00:33;101437.97;;;10.53;69.63
76011;BME280;64701;43.536;1.478;2023-02-05T14:02:59;101441.63;;;10.33;70.38
76011;BME280;64701;43.536;1.478;2023-02-05T14:05:39;101446.38;;;10.39;70.09
76011;BME280;64701;43.536;1.478;2023-02-05T14:08:05;101438.81;;;10.44;69.57
76011;BME280;64701;43.536;1.478;2023-02-05T14:10:43;101432.84;;;10.42;69.74
76011;BME280;64701;43.536;1.478;2023-02-05T14:15:41;101445.00;;;10.25;70.12
76011;BME280;64701;43.536;1.478;2023-02-05T14:18:10;101445.28;;;10.22;70.65
76011;BME280;64701;43.536;1.478;2023-02-05T14:20:37;101433.88;;;10.21;70.04
76011;BME280;64701;43.536;1.478;2023-02-05T14:23:10;101431.50;;;10.18;70.43
76011;BME280;64701;43.536;1.478;2023-02-05T14:30:47;101438.03;;;10.05;71.33
76011;BME280;64701;43.536;1.478;2023-02-05T14:35:54;101452.25;;;9.94;72.56
76011;BME280;64701;43.536;1.478;2023-02-05T14:41:02;101438.75;;;9.97;72.12
76011;BME280;64701;43.536;1.478;2023-02-05T14:43:30;101427.44;;;9.95;72.31
76011;BME280;64701;43.536;1.478;2023-02-05T14:45:57;101428.56;;;10.02;72.02
76011;BME280;64701;43.536;1.478;2023-02-05T14:48:25;101425.81;;;9.94;72.90
76011;BME280;64701;43.536;1.478;2023-02-05T14:53:37;101434.16;;;10.18;71.68
76011;BME280;64701;43.536;1.478;2023-02-05T14:56:03;101430.94;;;10.25;71.63
76011;BME280;64701;43.536;1.478;2023-02-05T14:58:30;101428.69;;;10.30;71.13
76011;BME280;64701;43.536;1.478;2023-02-05T15:03:49;101419.09;;;10.09;71.60
76011;BME280;64701;43.536;1.478;2023-02-05T15:06:16;101417.16;;;10.11;71.95
76011;BME280;64701;43.536;1.478;2023-02-05T15:08:43;101417.16;;;10.11;71.34
76011;BME280;64701;43.536;1.478;2023-02-05T15:13:38;101414.63;;;10.10;71.53
76011;BME280;64701;43.536;1.478;2023-02-05T15:18:51;101419.38;;;10.06;71.53
76011;BME280;64701;43.536;1.478;2023-02-05T15:21:22;101412.13;;;10.08;71.69